CheckWX is a tool to help pilots better visualize weather data.  It is not intended as a substitute for an official pre-flight weather briefing.

13:43:59 UTC

KOTM TAF
Ottumwa Regional Airport
Ottumwa, Iowa, USA
KOTM 021721Z 0218/0318 06004KT P6SM BKN025 FM021900 08006KT P6SM SCT090 FM022100 09007KT P6SM SCT200 FM030100 07005KT P6SM SCT200 FM030600 VRB03KT P6SM SCT250 FM030800 06004KT P6SM FEW200 FM031600 09005KT P6SM FEW250

Jul-2@
18:00 UTC

Jul-2 @ 18:00 UTC

Jul-2@
19:00 UTC

Jul-2 @ 19:00 UTC

TAF KOTM 021721Z 0218/0318 06004KT P6SM BKN025

Expired

Wind
  • 060° at 4 KTS
Cloud Levels
  • Broken at 2,500' AGL

Jul-2@
19:00 UTC

Jul-2 @ 19:00 UTC

Jul-2@
21:00 UTC

Jul-2 @ 21:00 UTC

FM021900 08006KT P6SM SCT090

Expired

Wind
  • 080° at 6 KTS
Cloud Levels
  • Scattered at 9,000' AGL

Jul-2@
21:00 UTC

Jul-2 @ 21:00 UTC

Jul-3@
01:00 UTC

Jul-3 @ 01:00 UTC

FM022100 09007KT P6SM SCT200

Expired

Wind
  • 090° at 7 KTS
Cloud Levels
  • Scattered at 20,000' AGL

Jul-3@
01:00 UTC

Jul-3 @ 01:00 UTC

Jul-3@
06:00 UTC

Jul-3 @ 06:00 UTC

FM030100 07005KT P6SM SCT200

Expired

Wind
  • 070° at 5 KTS
Cloud Levels
  • Scattered at 20,000' AGL

Jul-3@
06:00 UTC

Jul-3 @ 06:00 UTC

Jul-3@
08:00 UTC

Jul-3 @ 08:00 UTC

FM030600 VRB03KT P6SM SCT250

Expired

Wind
  • Variable at 3 KTS
Cloud Levels
  • Scattered at 25,000' AGL

Jul-3@
08:00 UTC

Jul-3 @ 08:00 UTC

Jul-3@
16:00 UTC

Jul-3 @ 16:00 UTC

FM030800 06004KT P6SM FEW200

From

From Standard forecast or significant change

Wind
  • 060° at 4 KTS
Cloud Levels
  • Few at 20,000' AGL

Jul-3@
16:00 UTC

Jul-3 @ 16:00 UTC

Jul-3@
18:00 UTC

Jul-3 @ 18:00 UTC

FM031600 09005KT P6SM FEW250

From

From Standard forecast or significant change

Wind
  • 090° at 5 KTS
Cloud Levels
  • Few at 25,000' AGL